Time;durP1;ratioP1;P1;durP2;ratioP2;P2;SDS_P1;SDS_P2;PMS_P1;PMS_P2;Temp;Humidity;BMP_temperature;BMP_pressure;BME280_temperature;BME280_humidity;BME280_pressure;Samples;Min_cycle;Max_cycle;Signal;HPM_P1;HPM_P2
2022/07/08 00:02:12;;;;;;;15.23;8.07;;;;;;;;;;3367617;42;20608;-56
2022/07/08 00:04:39;;;;;;;15.38;8.35;;;;;;;;;;3367431;42;20114;-59
2022/07/08 00:07:05;;;;;;;15.57;8.07;;;;;;;;;;3366915;42;20559;-55
2022/07/08 00:09:31;;;;;;;16.35;8.30;;;;;;;;;;3368001;42;20087;-57
2022/07/08 00:11:57;;;;;;;21.83;8.45;;;;;;;;;;3367538;42;20084;-57
2022/07/08 00:14:23;;;;;;;16.33;8.07;;;;;;;;;;3353572;42;20088;-58
2022/07/08 00:16:49;;;;;;;14.17;8.30;;;;;;;;;;3355009;42;20144;-55
2022/07/08 00:19:16;;;;;;;21.60;8.88;;;;;;;;;;3358446;42;20108;-58
2022/07/08 00:21:46;;;;;;;14.57;7.93;;;;;;;;;;3367035;42;20106;-57
2022/07/08 00:24:13;;;;;;;16.10;8.23;;;;;;;;;;3359949;42;20088;-57
2022/07/08 00:26:40;;;;;;;18.52;7.93;;;;;;;;;;3367636;42;20098;-55
2022/07/08 00:29:06;;;;;;;14.90;7.90;;;;;;;;;;3366705;42;20170;-56
2022/07/08 00:31:32;;;;;;;16.73;7.70;;;;;;;;;;3367203;42;20155;-56
2022/07/08 00:33:58;;;;;;;15.02;7.90;;;;;;;;;;3367469;42;20092;-56
2022/07/08 00:36:24;;;;;;;15.10;8.00;;;;;;;;;;3367189;42;20139;-55
2022/07/08 00:38:50;;;;;;;18.30;8.63;;;;;;;;;;3358350;42;20091;-59
2022/07/08 00:41:16;;;;;;;14.17;7.90;;;;;;;;;;3367383;42;20107;-56
2022/07/08 00:43:44;;;;;;;15.13;8.50;;;;;;;;;;3358420;42;20092;-54
2022/07/08 00:46:11;;;;;;;15.07;8.30;;;;;;;;;;3358617;42;20588;-54
2022/07/08 00:48:37;;;;;;;18.30;8.80;;;;;;;;;;3367326;42;20216;-57
2022/07/08 00:51:07;;;;;;;14.25;7.95;;;;;;;;;;3367226;42;20135;-57
2022/07/08 00:53:34;;;;;;;15.20;8.10;;;;;;;;;;3353282;42;20618;-58
2022/07/08 00:56:02;;;;;;;14.65;7.75;;;;;;;;;;3366425;42;20155;-57
2022/07/08 00:58:28;;;;;;;14.73;8.43;;;;;;;;;;3358459;42;20088;-56
2022/07/08 01:00:54;;;;;;;15.40;8.55;;;;;;;;;;3358268;42;20478;-59
2022/07/08 01:03:21;;;;;;;15.75;8.32;;;;;;;;;;3367423;42;20581;-57
2022/07/08 01:05:47;;;;;;;15.37;7.63;;;;;;;;;;3354258;42;20110;-58
2022/07/08 01:08:13;;;;;;;13.10;8.27;;;;;;;;;;3366886;42;20112;-56
2022/07/08 01:10:39;;;;;;;16.70;8.30;;;;;;;;;;3357572;42;20102;-59
2022/07/08 01:13:05;;;;;;;14.80;7.80;;;;;;;;;;3366940;42;20099;-58
2022/07/08 01:15:31;;;;;;;14.23;7.82;;;;;;;;;;3352389;42;20104;-58
2022/07/08 01:17:57;;;;;;;12.77;7.87;;;;;;;;;;3367452;42;20573;-54
2022/07/08 01:20:23;;;;;;;15.20;8.48;;;;;;;;;;3367866;42;20088;-57
2022/07/08 01:22:49;;;;;;;15.80;8.18;;;;;;;;;;3368852;42;20550;-57
2022/07/08 01:25:15;;;;;;;15.13;7.95;;;;;;;;;;3367138;42;20613;-55
2022/07/08 01:27:41;;;;;;;14.13;7.50;;;;;;;;;;3358130;42;20472;-57
2022/07/08 01:30:07;;;;;;;14.05;8.15;;;;;;;;;;3354162;42;20870;-52
2022/07/08 01:32:35;;;;;;;14.68;8.07;;;;;;;;;;3366529;42;20161;-57
2022/07/08 01:35:01;;;;;;;14.40;7.63;;;;;;;;;;3366279;42;20151;-58
2022/07/08 01:37:27;;;;;;;17.67;8.53;;;;;;;;;;3366989;42;20587;-56
2022/07/08 01:39:53;;;;;;;16.25;8.05;;;;;;;;;;3367173;42;20141;-55
2022/07/08 01:42:19;;;;;;;15.73;8.75;;;;;;;;;;3357965;42;20158;-57
2022/07/08 01:44:45;;;;;;;13.95;8.23;;;;;;;;;;3366970;42;20177;-55
2022/07/08 01:47:11;;;;;;;13.82;8.02;;;;;;;;;;3366416;42;20195;-57
2022/07/08 01:49:37;;;;;;;16.37;8.23;;;;;;;;;;3366888;42;20092;-56
2022/07/08 01:52:05;;;;;;;15.10;9.20;;;;;;;;;;3366465;42;20234;-59
2022/07/08 01:54:31;;;;;;;13.35;7.90;;;;;;;;;;3353929;42;20215;-56
2022/07/08 01:57:15;;;;;;;13.35;8.35;;;;;;;;;;3365816;42;20155;-55
2022/07/08 01:59:42;;;;;;;13.93;8.03;;;;;;;;;;3360739;42;20147;-56
2022/07/08 02:02:08;;;;;;;13.63;8.07;;;;;;;;;;3366651;42;20095;-57
2022/07/08 02:04:34;;;;;;;13.75;7.95;;;;;;;;;;3366705;42;20148;-58
2022/07/08 02:07:00;;;;;;;16.08;8.07;;;;;;;;;;3366381;42;20095;-56
2022/07/08 02:09:26;;;;;;;13.87;7.87;;;;;;;;;;3352663;42;20563;-59
2022/07/08 02:14:37;;;;;;;12.50;7.97;;;;;;;;;;3366540;42;20653;-54
2022/07/08 02:17:03;;;;;;;12.60;7.35;;;;;;;;;;3357855;42;20787;-58
2022/07/08 02:19:30;;;;;;;12.40;7.53;;;;;;;;;;3366306;42;20210;-57
2022/07/08 02:21:56;;;;;;;12.37;7.57;;;;;;;;;;3353369;42;20079;-57
2022/07/08 02:24:22;;;;;;;13.15;7.57;;;;;;;;;;3367126;42;20553;-55
2022/07/08 02:26:48;;;;;;;13.77;7.72;;;;;;;;;;3366933;42;20095;-57
2022/07/08 02:29:14;;;;;;;13.97;7.80;;;;;;;;;;3366833;42;20467;-58
2022/07/08 02:31:40;;;;;;;16.13;7.83;;;;;;;;;;3366195;42;20299;-56
2022/07/08 02:34:06;;;;;;;13.55;7.72;;;;;;;;;;3366773;42;20096;-55
2022/07/08 02:36:32;;;;;;;13.82;7.40;;;;;;;;;;3367328;42;20154;-56
2022/07/08 02:38:57;;;;;;;14.10;7.30;;;;;;;;;;3366673;42;20610;-56
2022/07/08 02:41:23;;;;;;;13.43;7.67;;;;;;;;;;3366852;42;20509;-56
2022/07/08 02:43:49;;;;;;;13.95;7.45;;;;;;;;;;3366446;42;20111;-58
2022/07/08 02:46:15;;;;;;;14.63;7.47;;;;;;;;;;3366686;42;20088;-57
2022/07/08 02:48:41;;;;;;;12.93;7.40;;;;;;;;;;3366568;42;20083;-56
2022/07/08 02:51:07;;;;;;;13.65;7.75;;;;;;;;;;3366421;42;20102;-55
2022/07/08 02:53:33;;;;;;;12.85;8.38;;;;;;;;;;3366391;42;20135;-56
2022/07/08 02:55:59;;;;;;;12.95;8.07;;;;;;;;;;3365536;42;20607;-57
2022/07/08 02:58:25;;;;;;;14.27;8.60;;;;;;;;;;3366711;42;20086;-59
2022/07/08 03:00:51;;;;;;;12.32;7.40;;;;;;;;;;3359738;42;20116;-58
2022/07/08 03:03:17;;;;;;;12.15;6.90;;;;;;;;;;3366538;42;20099;-55
2022/07/08 03:05:43;;;;;;;14.37;7.50;;;;;;;;;;3366826;42;20087;-54
2022/07/08 03:08:09;;;;;;;17.07;7.73;;;;;;;;;;3366681;42;20375;-56
2022/07/08 03:10:34;;;;;;;14.57;8.02;;;;;;;;;;3367214;42;20092;-57
2022/07/08 03:13:00;;;;;;;14.70;8.20;;;;;;;;;;3366423;42;20123;-56
2022/07/08 03:15:26;;;;;;;12.03;7.67;;;;;;;;;;3366740;42;20194;-56
2022/07/08 03:17:52;;;;;;;12.05;7.90;;;;;;;;;;3366801;42;20092;-55
2022/07/08 03:20:18;;;;;;;12.60;7.47;;;;;;;;;;3366857;42;20505;-55
2022/07/08 03:22:45;;;;;;;15.68;8.20;;;;;;;;;;3367134;42;20106;-56
2022/07/08 03:25:11;;;;;;;13.43;8.43;;;;;;;;;;3366917;42;20102;-57
2022/07/08 03:27:37;;;;;;;14.05;7.50;;;;;;;;;;3366892;42;20147;-56
2022/07/08 03:30:04;;;;;;;14.85;8.05;;;;;;;;;;3366929;42;20583;-56
2022/07/08 03:32:30;;;;;;;14.77;8.02;;;;;;;;;;3366812;42;20087;-53
2022/07/08 03:34:56;;;;;;;16.87;8.27;;;;;;;;;;3366238;42;20233;-54
2022/07/08 03:37:22;;;;;;;17.45;9.80;;;;;;;;;;3357505;42;20505;-56
2022/07/08 03:39:50;;;;;;;15.88;8.50;;;;;;;;;;3367806;42;20539;-56
2022/07/08 03:42:17;;;;;;;15.27;8.70;;;;;;;;;;3367851;42;20151;-57
2022/07/08 03:44:43;;;;;;;16.85;8.95;;;;;;;;;;3357926;42;20084;-55
2022/07/08 03:47:09;;;;;;;14.10;8.40;;;;;;;;;;3367809;42;20683;-57
2022/07/08 03:49:35;;;;;;;13.32;8.15;;;;;;;;;;3368352;42;20586;-58
2022/07/08 03:52:01;;;;;;;15.50;8.23;;;;;;;;;;3367641;42;20652;-56
2022/07/08 03:54:28;;;;;;;14.57;8.75;;;;;;;;;;3359190;42;20149;-56
2022/07/08 03:56:53;;;;;;;13.13;8.10;;;;;;;;;;3369491;42;20091;-61
2022/07/08 03:59:19;;;;;;;14.18;8.25;;;;;;;;;;3369529;42;20502;-55
2022/07/08 04:01:45;;;;;;;12.32;7.60;;;;;;;;;;3368868;42;20173;-56
2022/07/08 04:04:11;;;;;;;13.00;8.00;;;;;;;;;;3369450;42;20554;-55
2022/07/08 04:06:37;;;;;;;13.13;8.43;;;;;;;;;;3369273;42;20283;-57
2022/07/08 04:09:04;;;;;;;14.32;7.60;;;;;;;;;;3369036;42;20100;-56
2022/07/08 04:11:30;;;;;;;12.60;8.00;;;;;;;;;;3354965;42;20098;-56
2022/07/08 04:13:56;;;;;;;13.45;7.55;;;;;;;;;;3367903;42;20153;-52
2022/07/08 04:16:22;;;;;;;11.82;7.80;;;;;;;;;;3368371;42;20166;-53
2022/07/08 04:18:48;;;;;;;12.35;7.93;;;;;;;;;;3359272;42;20088;-56
2022/07/08 04:21:15;;;;;;;15.07;8.40;;;;;;;;;;3368122;42;20102;-55
2022/07/08 04:23:41;;;;;;;14.13;8.32;;;;;;;;;;3359587;42;20092;-56
2022/07/08 04:26:07;;;;;;;13.55;8.02;;;;;;;;;;3368320;42;20152;-57
2022/07/08 04:28:33;;;;;;;19.80;8.55;;;;;;;;;;3368283;42;20114;-57
2022/07/08 04:30:59;;;;;;;12.95;7.57;;;;;;;;;;3368352;42;20080;-54
2022/07/08 04:33:25;;;;;;;12.80;7.40;;;;;;;;;;3368445;42;20534;-54
2022/07/08 04:35:51;;;;;;;10.90;7.40;;;;;;;;;;3368826;42;20114;-56
2022/07/08 04:38:17;;;;;;;11.15;6.60;;;;;;;;;;3368413;42;20333;-55
2022/07/08 04:40:43;;;;;;;11.75;6.93;;;;;;;;;;3359494;42;20116;-54
2022/07/08 04:43:09;;;;;;;11.70;6.45;;;;;;;;;;3368260;42;20092;-55
2022/07/08 04:45:35;;;;;;;12.30;6.30;;;;;;;;;;3367717;42;20088;-58
2022/07/08 04:48:01;;;;;;;11.65;6.90;;;;;;;;;;3367570;42;20801;-56
2022/07/08 04:50:27;;;;;;;11.10;6.63;;;;;;;;;;3367484;42;20139;-56
2022/07/08 04:52:53;;;;;;;11.80;6.85;;;;;;;;;;3367012;42;20103;-57
2022/07/08 04:55:29;;;;;;;11.77;7.00;;;;;;;;;;3367279;42;20175;-54
2022/07/08 04:57:56;;;;;;;11.40;6.20;;;;;;;;;;3367466;42;20155;-56
2022/07/08 05:00:22;;;;;;;11.13;6.22;;;;;;;;;;3362755;42;20087;-57
2022/07/08 05:02:48;;;;;;;11.55;6.90;;;;;;;;;;3367155;42;20118;-57
2022/07/08 05:05:14;;;;;;;12.57;6.22;;;;;;;;;;3367012;42;20124;-55
2022/07/08 05:07:40;;;;;;;14.80;7.20;;;;;;;;;;3366509;42;20102;-61
2022/07/08 05:10:06;;;;;;;13.40;6.43;;;;;;;;;;3366892;42;20091;-63
2022/07/08 05:12:32;;;;;;;12.48;6.68;;;;;;;;;;3366831;42;20114;-61
2022/07/08 05:14:58;;;;;;;11.70;6.40;;;;;;;;;;3367629;42;20088;-62
2022/07/08 05:17:24;;;;;;;14.27;6.72;;;;;;;;;;3370567;42;20528;-61
2022/07/08 05:19:50;;;;;;;11.18;5.80;;;;;;;;;;3358196;42;20111;-61
2022/07/08 05:22:16;;;;;;;10.43;6.35;;;;;;;;;;3366834;42;20106;-58
2022/07/08 05:24:42;;;;;;;11.98;6.05;;;;;;;;;;3365549;42;20087;-56
2022/07/08 05:27:08;;;;;;;9.57;5.80;;;;;;;;;;3368172;42;20095;-57
2022/07/08 05:29:34;;;;;;;11.88;5.80;;;;;;;;;;3366914;42;20542;-58
2022/07/08 05:32:00;;;;;;;12.20;5.90;;;;;;;;;;3366914;42;20598;-58
2022/07/08 05:34:26;;;;;;;14.50;5.45;;;;;;;;;;3367183;42;20083;-56
2022/07/08 05:36:52;;;;;;;10.30;5.50;;;;;;;;;;3366837;42;20117;-57
2022/07/08 05:39:17;;;;;;;9.85;5.90;;;;;;;;;;3366894;42;20641;-58
2022/07/08 05:41:43;;;;;;;9.20;5.60;;;;;;;;;;3366801;42;20080;-61
2022/07/08 05:44:09;;;;;;;9.98;4.70;;;;;;;;;;3360150;42;20091;-62
2022/07/08 05:46:35;;;;;;;12.38;5.03;;;;;;;;;;3366967;42;20094;-61
2022/07/08 05:49:01;;;;;;;9.35;5.07;;;;;;;;;;3361215;42;20150;-61
2022/07/08 05:51:27;;;;;;;12.40;4.93;;;;;;;;;;3366833;42;20091;-61
2022/07/08 05:53:55;;;;;;;9.77;5.17;;;;;;;;;;3366743;42;20105;-61
2022/07/08 05:56:22;;;;;;;11.00;5.30;;;;;;;;;;3366533;42;20096;-60
2022/07/08 05:58:48;;;;;;;9.02;5.07;;;;;;;;;;3352522;42;20582;-62
2022/07/08 06:01:14;;;;;;;10.30;5.03;;;;;;;;;;3354638;42;20108;-62
2022/07/08 06:03:40;;;;;;;12.27;5.90;;;;;;;;;;3365575;42;20102;-61
2022/07/08 06:06:06;;;;;;;12.82;5.32;;;;;;;;;;3366648;42;20624;-62
2022/07/08 06:08:32;;;;;;;9.57;5.32;;;;;;;;;;3363163;42;20145;-62
2022/07/08 06:11:01;;;;;;;10.95;5.20;;;;;;;;;;3362266;42;20103;-61
2022/07/08 06:13:27;;;;;;;9.98;5.30;;;;;;;;;;3366114;42;20095;-62
2022/07/08 06:15:53;;;;;;;11.07;5.30;;;;;;;;;;3354128;42;20151;-63
2022/07/08 06:18:20;;;;;;;11.77;5.28;;;;;;;;;;3366005;42;20098;-61
2022/07/08 06:20:46;;;;;;;9.63;5.30;;;;;;;;;;3357813;42;20190;-63
2022/07/08 06:23:14;;;;;;;8.82;5.22;;;;;;;;;;3366199;42;20661;-60
2022/07/08 06:25:40;;;;;;;9.70;5.50;;;;;;;;;;3366175;42;20155;-61
2022/07/08 06:28:06;;;;;;;10.75;5.43;;;;;;;;;;3356865;42;20076;-61
2022/07/08 06:30:32;;;;;;;10.55;5.50;;;;;;;;;;3366036;42;20866;-61
2022/07/08 06:32:59;;;;;;;9.65;5.43;;;;;;;;;;3366224;42;20846;-62
2022/07/08 06:35:28;;;;;;;9.87;5.10;;;;;;;;;;3352500;42;20602;-62
2022/07/08 06:37:54;;;;;;;9.98;5.63;;;;;;;;;;3365951;42;20076;-61
2022/07/08 06:40:21;;;;;;;12.10;6.18;;;;;;;;;;3365688;42;20094;-61
2022/07/08 06:42:49;;;;;;;10.70;5.30;;;;;;;;;;3365662;42;20636;-62
2022/07/08 06:45:15;;;;;;;8.73;5.57;;;;;;;;;;3366271;42;20107;-60
2022/07/08 06:47:41;;;;;;;9.13;5.30;;;;;;;;;;3356889;42;20084;-62
2022/07/08 06:50:08;;;;;;;11.23;5.40;;;;;;;;;;3365881;42;20157;-62
2022/07/08 06:52:35;;;;;;;11.93;5.70;;;;;;;;;;3365195;42;20206;-60
2022/07/08 06:55:01;;;;;;;10.18;5.82;;;;;;;;;;3356879;42;20124;-62
2022/07/08 06:57:27;;;;;;;11.48;5.80;;;;;;;;;;3365721;42;20092;-61
2022/07/08 06:59:53;;;;;;;9.50;5.40;;;;;;;;;;3354323;42;20102;-61
2022/07/08 07:02:19;;;;;;;9.82;5.75;;;;;;;;;;3349971;42;20084;-60
2022/07/08 07:04:45;;;;;;;11.20;5.63;;;;;;;;;;3366113;42;20072;-61
2022/07/08 07:07:11;;;;;;;11.43;6.20;;;;;;;;;;3353619;42;20100;-61
2022/07/08 07:09:38;;;;;;;10.20;5.90;;;;;;;;;;3364354;42;20080;-61
2022/07/08 07:12:07;;;;;;;11.60;5.90;;;;;;;;;;3366124;42;20140;-61
2022/07/08 07:14:34;;;;;;;10.35;6.18;;;;;;;;;;3356949;42;20128;-60
2022/07/08 07:17:00;;;;;;;9.70;5.90;;;;;;;;;;3365675;42;20531;-62
2022/07/08 07:19:27;;;;;;;9.57;5.55;;;;;;;;;;3357582;42;20095;-61
2022/07/08 07:21:53;;;;;;;12.35;5.90;;;;;;;;;;3366227;42;20613;-60
2022/07/08 07:24:19;;;;;;;9.00;5.90;;;;;;;;;;3357551;42;20857;-61
2022/07/08 07:26:45;;;;;;;8.60;5.20;;;;;;;;;;3357345;42;20135;-61
2022/07/08 07:29:11;;;;;;;11.05;5.43;;;;;;;;;;3365267;42;20184;-61
2022/07/08 07:31:37;;;;;;;13.53;6.03;;;;;;;;;;3359056;42;20095;-61
2022/07/08 07:34:03;;;;;;;9.52;5.82;;;;;;;;;;3359268;42;20087;-61
2022/07/08 07:36:29;;;;;;;10.60;6.30;;;;;;;;;;3367926;42;20088;-62
2022/07/08 07:38:55;;;;;;;10.73;6.07;;;;;;;;;;3367903;42;20079;-61
2022/07/08 07:41:21;;;;;;;10.80;6.13;;;;;;;;;;3359498;42;20103;-61
2022/07/08 07:43:48;;;;;;;10.15;6.13;;;;;;;;;;3368547;42;20075;-62
2022/07/08 07:46:14;;;;;;;11.38;6.10;;;;;;;;;;3367512;42;20131;-63
2022/07/08 07:48:40;;;;;;;11.77;6.35;;;;;;;;;;3359020;42;20134;-61
2022/07/08 07:51:06;;;;;;;9.63;6.15;;;;;;;;;;3367100;42;20151;-62
2022/07/08 07:53:32;;;;;;;9.30;6.10;;;;;;;;;;3367770;42;20479;-62
2022/07/08 07:55:58;;;;;;;8.88;5.80;;;;;;;;;;3358666;42;20099;-63
2022/07/08 07:58:24;;;;;;;9.52;5.70;;;;;;;;;;3351986;42;20597;-63
2022/07/08 08:00:51;;;;;;;11.40;5.60;;;;;;;;;;3367560;42;20188;-62
2022/07/08 08:03:17;;;;;;;9.00;5.85;;;;;;;;;;3367401;42;20563;-63
2022/07/08 08:05:43;;;;;;;9.82;5.72;;;;;;;;;;3358308;42;20575;-61
2022/07/08 08:08:09;;;;;;;11.38;5.85;;;;;;;;;;3367468;42;20602;-62
2022/07/08 08:10:35;;;;;;;9.70;5.60;;;;;;;;;;3367714;42;20096;-61
2022/07/08 08:13:01;;;;;;;10.77;6.37;;;;;;;;;;3367420;42;20207;-58
2022/07/08 08:15:29;;;;;;;12.27;6.10;;;;;;;;;;3367393;42;20110;-61
2022/07/08 08:17:58;;;;;;;11.52;6.00;;;;;;;;;;3367234;42;20122;-59
2022/07/08 08:20:25;;;;;;;10.88;6.18;;;;;;;;;;3366219;42;20566;-58
2022/07/08 08:22:51;;;;;;;8.88;5.53;;;;;;;;;;3367025;42;20147;-62
2022/07/08 08:25:18;;;;;;;10.05;6.10;;;;;;;;;;3367713;42;20139;-60
2022/07/08 08:27:44;;;;;;;10.00;5.95;;;;;;;;;;3367666;42;20625;-57
2022/07/08 08:30:11;;;;;;;10.30;6.30;;;;;;;;;;3367454;42;20135;-61
2022/07/08 08:32:37;;;;;;;11.65;5.88;;;;;;;;;;3367534;42;20471;-59
2022/07/08 08:35:03;;;;;;;9.40;5.80;;;;;;;;;;3358480;42;20131;-60
2022/07/08 08:37:29;;;;;;;10.43;6.00;;;;;;;;;;3367306;42;20613;-58
2022/07/08 08:39:55;;;;;;;9.25;5.63;;;;;;;;;;3355776;42;20147;-57
2022/07/08 08:42:21;;;;;;;9.75;5.90;;;;;;;;;;3363582;42;20180;-58
2022/07/08 08:44:51;;;;;;;10.52;5.50;;;;;;;;;;3367215;42;20071;-60
2022/07/08 08:47:17;;;;;;;10.90;5.90;;;;;;;;;;3358356;42;20072;-60
2022/07/08 08:49:43;;;;;;;10.40;5.90;;;;;;;;;;3366781;42;20597;-60
2022/07/08 08:52:11;;;;;;;11.15;6.18;;;;;;;;;;3366737;42;20135;-61
2022/07/08 08:54:37;;;;;;;11.82;6.50;;;;;;;;;;3358182;42;20092;-62
2022/07/08 08:57:06;;;;;;;10.23;6.07;;;;;;;;;;3350592;42;20490;-62
2022/07/08 08:59:33;;;;;;;11.30;5.90;;;;;;;;;;3366504;42;20090;-62
2022/07/08 09:02:00;;;;;;;10.32;6.22;;;;;;;;;;3346258;42;20230;-62
2022/07/08 09:04:31;;;;;;;14.50;8.02;;;;;;;;;;3366850;42;20214;-63
2022/07/08 09:06:59;;;;;;;12.38;8.05;;;;;;;;;;3355252;42;20188;-62
2022/07/08 09:09:25;;;;;;;13.10;8.03;;;;;;;;;;3357499;42;20119;-61
2022/07/08 09:11:51;;;;;;;12.15;7.15;;;;;;;;;;3358703;42;20093;-61
2022/07/08 09:14:20;;;;;;;14.52;7.40;;;;;;;;;;3366951;42;20075;-62
2022/07/08 09:17:16;;;;;;;11.45;7.00;;;;;;;;;;3366632;42;20088;-61
2022/07/08 09:19:42;;;;;;;13.57;7.00;;;;;;;;;;3353935;42;20096;-61
2022/07/08 09:22:09;;;;;;;13.40;6.82;;;;;;;;;;3350644;42;20076;-61
2022/07/08 09:24:41;;;;;;;14.48;7.70;;;;;;;;;;3365524;42;20092;-61
2022/07/08 09:27:08;;;;;;;14.75;7.50;;;;;;;;;;3366405;42;20198;-61
2022/07/08 09:29:34;;;;;;;16.90;8.10;;;;;;;;;;3366668;42;20106;-61
2022/07/08 09:32:11;;;;;;;23.60;7.40;;;;;;;;;;3366742;42;20156;-61
2022/07/08 09:34:37;;;;;;;14.10;6.68;;;;;;;;;;3366487;42;20744;-61
2022/07/08 09:37:10;;;;;;;12.65;7.10;;;;;;;;;;3351519;42;20092;-61
2022/07/08 09:39:36;;;;;;;12.73;7.60;;;;;;;;;;3366300;42;20091;-60
2022/07/08 09:42:02;;;;;;;11.35;6.90;;;;;;;;;;3366494;42;20080;-63
2022/07/08 09:44:28;;;;;;;13.53;7.80;;;;;;;;;;3356945;42;20588;-62
2022/07/08 09:46:54;;;;;;;13.23;7.00;;;;;;;;;;3366027;42;20147;-61
2022/07/08 09:49:30;;;;;;;13.57;6.82;;;;;;;;;;3351409;42;20171;-62
2022/07/08 09:51:57;;;;;;;11.35;7.05;;;;;;;;;;3365822;42;20179;-63
2022/07/08 09:54:23;;;;;;;13.90;7.00;;;;;;;;;;3366053;42;20102;-61
2022/07/08 09:57:09;;;;;;;13.18;7.00;;;;;;;;;;3357468;42;20098;-61
2022/07/08 09:59:35;;;;;;;11.20;6.75;;;;;;;;;;3352826;42;20099;-63
2022/07/08 10:02:02;;;;;;;11.77;6.80;;;;;;;;;;3365735;42;20099;-64
2022/07/08 10:04:28;;;;;;;13.40;7.10;;;;;;;;;;3366089;42;20597;-63
2022/07/08 10:06:55;;;;;;;12.60;6.80;;;;;;;;;;3354169;42;20096;-63
2022/07/08 10:09:22;;;;;;;15.88;7.35;;;;;;;;;;3361476;42;20092;-63
2022/07/08 10:11:49;;;;;;;12.80;7.57;;;;;;;;;;3355506;42;20111;-63
2022/07/08 10:14:15;;;;;;;15.57;7.57;;;;;;;;;;3364907;42;20092;-62
2022/07/08 10:16:42;;;;;;;14.85;7.40;;;;;;;;;;3366396;42;20172;-61
2022/07/08 10:19:29;;;;;;;13.47;7.03;;;;;;;;;;3356911;42;20513;-62
2022/07/08 10:21:55;;;;;;;12.32;7.25;;;;;;;;;;3345349;42;20135;-63
2022/07/08 10:24:24;;;;;;;15.60;7.35;;;;;;;;;;3344035;42;20818;-62
2022/07/08 10:26:50;;;;;;;11.20;6.90;;;;;;;;;;3354962;42;20099;-59
2022/07/08 10:29:16;;;;;;;11.48;7.43;;;;;;;;;;3348211;42;20148;-62
2022/07/08 10:31:46;;;;;;;13.87;7.33;;;;;;;;;;3363381;42;20106;-63
2022/07/08 10:34:13;;;;;;;12.30;7.20;;;;;;;;;;3365771;42;20146;-62
2022/07/08 10:36:50;;;;;;;11.38;7.18;;;;;;;;;;3366056;42;20088;-61
2022/07/08 10:39:28;;;;;;;10.77;6.78;;;;;;;;;;3365890;42;20161;-63
2022/07/08 10:42:04;;;;;;;9.80;6.17;;;;;;;;;;3365827;42;20214;-63
2022/07/08 10:44:45;;;;;;;11.38;5.82;;;;;;;;;;3365230;42;20135;-62
2022/07/08 10:47:12;;;;;;;11.77;6.13;;;;;;;;;;3358963;42;20084;-63
2022/07/08 10:49:41;;;;;;;11.38;6.95;;;;;;;;;;3355080;42;20111;-64
2022/07/08 10:52:07;;;;;;;12.02;7.53;;;;;;;;;;3365711;42;20546;-64
2022/07/08 10:54:39;;;;;;;13.50;7.80;;;;;;;;;;3365547;42;20162;-62
2022/07/08 10:57:17;;;;;;;13.88;7.90;;;;;;;;;;3364768;42;20515;-61
2022/07/08 11:00:02;;;;;;;14.55;7.55;;;;;;;;;;3356793;42;20091;-62
2022/07/08 11:02:28;;;;;;;12.15;7.40;;;;;;;;;;3366424;42;20099;-62
2022/07/08 11:04:56;;;;;;;13.02;7.72;;;;;;;;;;3364301;42;20072;-63
2022/07/08 11:07:26;;;;;;;13.60;7.90;;;;;;;;;;3364012;42;20650;-61
2022/07/08 11:09:54;;;;;;;11.23;7.50;;;;;;;;;;3356916;42;20087;-61
2022/07/08 11:12:25;;;;;;;13.23;7.95;;;;;;;;;;3345183;42;20102;-61
2022/07/08 11:14:53;;;;;;;13.50;7.65;;;;;;;;;;3357211;42;20104;-61
2022/07/08 11:17:29;;;;;;;11.30;7.72;;;;;;;;;;3365803;42;20100;-60
2022/07/08 11:19:57;;;;;;;11.70;7.40;;;;;;;;;;3365122;42;20566;-61
2022/07/08 11:22:23;;;;;;;14.55;7.95;;;;;;;;;;3350918;42;20131;-60
2022/07/08 11:24:49;;;;;;;12.93;7.43;;;;;;;;;;3363281;42;20174;-62
2022/07/08 11:27:16;;;;;;;13.80;7.30;;;;;;;;;;3356851;42;20566;-59
2022/07/08 11:29:49;;;;;;;11.73;7.45;;;;;;;;;;3356798;42;20151;-61
2022/07/08 11:32:16;;;;;;;12.20;6.90;;;;;;;;;;3349451;42;20104;-59
2022/07/08 11:34:43;;;;;;;10.45;6.45;;;;;;;;;;3350207;42;20136;-59
2022/07/08 11:37:09;;;;;;;12.10;7.35;;;;;;;;;;3365874;42;20105;-60
2022/07/08 11:39:35;;;;;;;11.18;6.60;;;;;;;;;;3356938;42;20126;-62
2022/07/08 11:42:01;;;;;;;10.88;6.85;;;;;;;;;;3342704;42;20159;-60
2022/07/08 11:44:27;;;;;;;11.37;6.83;;;;;;;;;;3365743;42;20103;-62
2022/07/08 11:46:54;;;;;;;12.23;7.03;;;;;;;;;;3365762;42;20135;-62
2022/07/08 11:49:21;;;;;;;12.43;7.57;;;;;;;;;;3364928;42;20584;-62
2022/07/08 11:51:52;;;;;;;13.65;7.30;;;;;;;;;;3369824;42;20091;-62
2022/07/08 11:54:22;;;;;;;11.23;6.88;;;;;;;;;;3361795;42;20102;-62
2022/07/08 11:56:52;;;;;;;10.93;6.87;;;;;;;;;;3368715;42;20106;-62
2022/07/08 11:59:31;;;;;;;11.88;6.90;;;;;;;;;;3366078;42;20103;-62
2022/07/08 12:01:58;;;;;;;11.43;6.60;;;;;;;;;;3359754;42;20109;-60
2022/07/08 12:04:24;;;;;;;12.85;6.95;;;;;;;;;;3360635;42;20099;-65
2022/07/08 12:06:58;;;;;;;14.40;6.47;;;;;;;;;;3360896;42;20592;-60
2022/07/08 12:09:24;;;;;;;9.83;6.90;;;;;;;;;;3360594;42;20092;-59
2022/07/08 12:11:51;;;;;;;10.93;6.28;;;;;;;;;;3366736;42;20187;-60
2022/07/08 12:14:18;;;;;;;13.15;6.80;;;;;;;;;;3358453;42;20148;-61
2022/07/08 12:16:47;;;;;;;12.13;6.80;;;;;;;;;;3367010;42;20104;-61
2022/07/08 12:19:27;;;;;;;10.75;6.50;;;;;;;;;;3368442;42;20096;-63
2022/07/08 12:21:53;;;;;;;13.63;7.00;;;;;;;;;;3367540;42;20174;-63
2022/07/08 12:24:24;;;;;;;10.88;6.70;;;;;;;;;;3367094;42;20140;-61
2022/07/08 12:26:54;;;;;;;12.13;7.60;;;;;;;;;;3367430;42;20547;-61
2022/07/08 12:29:19;;;;;;;12.60;7.38;;;;;;;;;;3362212;42;20095;-61
2022/07/08 12:31:45;;;;;;;12.52;7.38;;;;;;;;;;3361383;42;20088;-60
2022/07/08 12:34:18;;;;;;;13.53;7.50;;;;;;;;;;3352279;42;20130;-60
2022/07/08 12:36:45;;;;;;;13.73;7.97;;;;;;;;;;3369407;42;20150;-61
2022/07/08 12:39:14;;;;;;;13.68;8.15;;;;;;;;;;3362614;42;20095;-60
2022/07/08 12:41:41;;;;;;;12.27;7.20;;;;;;;;;;3369272;42;20110;-61
2022/07/08 12:44:29;;;;;;;12.40;7.30;;;;;;;;;;3361762;42;20797;-61
2022/07/08 12:46:56;;;;;;;12.07;7.73;;;;;;;;;;3358410;42;20095;-58
2022/07/08 12:49:23;;;;;;;12.43;7.78;;;;;;;;;;3369673;42;20246;-61
2022/07/08 12:51:49;;;;;;;11.75;7.20;;;;;;;;;;3359482;42;20083;-59
2022/07/08 12:54:17;;;;;;;12.00;7.22;;;;;;;;;;3369872;42;20181;-62
2022/07/08 12:56:43;;;;;;;13.50;7.25;;;;;;;;;;3369938;42;20087;-60
2022/07/08 12:59:09;;;;;;;11.93;7.27;;;;;;;;;;3365553;42;20613;-59
2022/07/08 13:01:35;;;;;;;12.38;7.30;;;;;;;;;;3355728;42;20104;-63
2022/07/08 13:04:03;;;;;;;14.27;7.90;;;;;;;;;;3358326;42;20257;-56
2022/07/08 13:06:29;;;;;;;16.38;8.70;;;;;;;;;;3357448;42;20095;-61
2022/07/08 13:08:55;;;;;;;12.07;7.97;;;;;;;;;;3358453;42;20088;-59
2022/07/08 13:11:21;;;;;;;12.65;8.02;;;;;;;;;;3350096;42;20104;-59
2022/07/08 13:13:47;;;;;;;14.45;8.02;;;;;;;;;;3359092;42;20264;-59
2022/07/08 13:16:14;;;;;;;14.30;8.10;;;;;;;;;;3358749;42;20100;-58
2022/07/08 13:18:40;;;;;;;12.60;7.93;;;;;;;;;;3341655;42;20101;-59
2022/07/08 13:21:06;;;;;;;14.07;8.27;;;;;;;;;;3358307;42;20084;-60
2022/07/08 13:23:32;;;;;;;13.82;8.10;;;;;;;;;;3349672;42;20550;-58
2022/07/08 13:25:58;;;;;;;13.63;8.43;;;;;;;;;;3358281;42;20563;-62
2022/07/08 13:28:24;;;;;;;17.27;9.05;;;;;;;;;;3357670;42;20132;-57
2022/07/08 13:30:50;;;;;;;14.60;8.80;;;;;;;;;;3349232;42;20166;-61
2022/07/08 13:33:16;;;;;;;14.48;8.23;;;;;;;;;;3357773;42;20692;-58
2022/07/08 13:35:42;;;;;;;14.90;8.57;;;;;;;;;;3358155;42;20102;-60
2022/07/08 13:38:08;;;;;;;14.43;8.37;;;;;;;;;;3357974;42;20136;-61
2022/07/08 13:40:34;;;;;;;16.70;8.93;;;;;;;;;;3349409;42;20131;-59
2022/07/08 13:43:00;;;;;;;22.55;8.82;;;;;;;;;;3358091;42;20579;-59
2022/07/08 13:45:25;;;;;;;16.93;8.60;;;;;;;;;;3358027;42;20080;-58
2022/07/08 13:47:51;;;;;;;18.58;9.00;;;;;;;;;;3357725;42;20094;-58
2022/07/08 13:50:19;;;;;;;13.25;8.35;;;;;;;;;;3349809;42;20163;-60
2022/07/08 13:52:45;;;;;;;16.23;8.82;;;;;;;;;;3357851;42;20119;-61
2022/07/08 13:55:11;;;;;;;16.40;8.40;;;;;;;;;;3346551;42;20144;-62
2022/07/08 13:57:37;;;;;;;17.90;9.57;;;;;;;;;;3365969;42;20092;-58
2022/07/08 14:00:06;;;;;;;18.60;9.45;;;;;;;;;;3361198;42;20083;-62
2022/07/08 14:02:33;;;;;;;21.88;10.25;;;;;;;;;;3368110;42;20091;-61
2022/07/08 14:04:59;;;;;;;22.57;11.03;;;;;;;;;;3370525;42;20558;-58
2022/07/08 14:07:25;;;;;;;21.88;10.70;;;;;;;;;;3371986;42;20099;-59
2022/07/08 14:09:51;;;;;;;24.75;10.90;;;;;;;;;;3366680;42;20087;-61
2022/07/08 14:12:18;;;;;;;19.35;11.30;;;;;;;;;;3366437;42;20098;-60
2022/07/08 14:14:44;;;;;;;25.40;10.57;;;;;;;;;;3367237;42;20537;-61
2022/07/08 14:17:10;;;;;;;24.13;11.02;;;;;;;;;;3366351;42;20553;-61
2022/07/08 14:19:36;;;;;;;20.50;11.00;;;;;;;;;;3366585;42;20157;-63
2022/07/08 14:22:02;;;;;;;21.92;11.02;;;;;;;;;;3366423;42;20110;-61
2022/07/08 14:24:28;;;;;;;21.57;10.97;;;;;;;;;;3366531;42;20095;-60
2022/07/08 14:26:54;;;;;;;21.23;10.77;;;;;;;;;;3366166;42;20233;-60
2022/07/08 14:29:21;;;;;;;21.58;10.80;;;;;;;;;;3366217;42;20577;-63
2022/07/08 14:31:47;;;;;;;16.73;10.05;;;;;;;;;;3357480;42;20095;-62
2022/07/08 14:34:13;;;;;;;21.90;10.83;;;;;;;;;;3366726;42;20208;-62